sensor_id;sensor_type;location;lat;lon;timestamp;temperature;humidity
43949;DHT22;29429;51.074;13.764;2023-02-01T00:01:08;5.20;99.90
43949;DHT22;29429;51.074;13.764;2023-02-01T00:03:36;5.10;99.90
43949;DHT22;29429;51.074;13.764;2023-02-01T00:06:03;5.20;99.90
43949;DHT22;29429;51.074;13.764;2023-02-01T00:08:30;5.10;99.90
43949;DHT22;29429;51.074;13.764;2023-02-01T00:11:03;5.00;99.90
43949;DHT22;29429;51.074;13.764;2023-02-01T00:13:33;5.10;99.90
43949;DHT22;29429;51.074;13.764;2023-02-01T00:16:08;5.10;99.90
43949;DHT22;29429;51.074;13.764;2023-02-01T00:18:41;5.10;99.90
43949;DHT22;29429;51.074;13.764;2023-02-01T00:21:09;5.10;99.90
43949;DHT22;29429;51.074;13.764;2023-02-01T00:23:37;5.10;99.90
43949;DHT22;29429;51.074;13.764;2023-02-01T00:26:06;5.20;99.90
43949;DHT22;29429;51.074;13.764;2023-02-01T00:28:37;5.20;99.90
43949;DHT22;29429;51.074;13.764;2023-02-01T00:31:04;5.20;99.90
43949;DHT22;29429;51.074;13.764;2023-02-01T00:33:32;5.30;99.90
43949;DHT22;29429;51.074;13.764;2023-02-01T00:36:02;5.30;99.90
43949;DHT22;29429;51.074;13.764;2023-02-01T00:38:31;5.30;99.90
43949;DHT22;29429;51.074;13.764;2023-02-01T00:41:05;5.40;99.90
43949;DHT22;29429;51.074;13.764;2023-02-01T00:43:34;5.40;99.90
43949;DHT22;29429;51.074;13.764;2023-02-01T00:46:01;5.50;99.90
43949;DHT22;29429;51.074;13.764;2023-02-01T00:48:29;5.50;99.90
43949;DHT22;29429;51.074;13.764;2023-02-01T00:51:04;5.50;99.90
43949;DHT22;29429;51.074;13.764;2023-02-01T00:53:35;5.60;99.90
43949;DHT22;29429;51.074;13.764;2023-02-01T00:56:03;5.60;99.90
43949;DHT22;29429;51.074;13.764;2023-02-01T00:58:32;5.60;99.90
43949;DHT22;29429;51.074;13.764;2023-02-01T01:01:09;5.60;99.90
43949;DHT22;29429;51.074;13.764;2023-02-01T01:03:57;5.60;99.90
43949;DHT22;29429;51.074;13.764;2023-02-01T01:06:28;5.60;99.90
43949;DHT22;29429;51.074;13.764;2023-02-01T01:08:59;5.60;99.90
43949;DHT22;29429;51.074;13.764;2023-02-01T01:11:30;5.50;99.90
43949;DHT22;29429;51.074;13.764;2023-02-01T01:13:59;5.60;99.90
43949;DHT22;29429;51.074;13.764;2023-02-01T01:16:28;5.40;99.90
43949;DHT22;29429;51.074;13.764;2023-02-01T01:18:57;5.30;99.90
43949;DHT22;29429;51.074;13.764;2023-02-01T01:21:24;5.40;99.90
43949;DHT22;29429;51.074;13.764;2023-02-01T01:23:52;5.30;99.90
43949;DHT22;29429;51.074;13.764;2023-02-01T01:26:22;5.30;99.90
43949;DHT22;29429;51.074;13.764;2023-02-01T01:28:58;5.30;99.90
43949;DHT22;29429;51.074;13.764;2023-02-01T01:31:26;5.30;99.90
43949;DHT22;29429;51.074;13.764;2023-02-01T01:33:56;5.30;99.90
43949;DHT22;29429;51.074;13.764;2023-02-01T01:36:25;5.40;99.90
43949;DHT22;29429;51.074;13.764;2023-02-01T01:38:53;5.50;99.90
43949;DHT22;29429;51.074;13.764;2023-02-01T01:41:26;5.50;99.90
43949;DHT22;29429;51.074;13.764;2023-02-01T01:44:02;5.50;99.90
43949;DHT22;29429;51.074;13.764;2023-02-01T01:46:36;5.50;99.90
43949;DHT22;29429;51.074;13.764;2023-02-01T01:49:20;5.60;99.90
43949;DHT22;29429;51.074;13.764;2023-02-01T01:51:51;5.60;99.90
43949;DHT22;29429;51.074;13.764;2023-02-01T01:54:29;5.60;99.90
43949;DHT22;29429;51.074;13.764;2023-02-01T01:57:04;5.60;99.90
43949;DHT22;29429;51.074;13.764;2023-02-01T01:59:40;5.60;99.90
43949;DHT22;29429;51.074;13.764;2023-02-01T02:02:10;5.60;99.90
43949;DHT22;29429;51.074;13.764;2023-02-01T02:04:37;5.60;99.90
43949;DHT22;29429;51.074;13.764;2023-02-01T02:07:10;5.70;99.90
43949;DHT22;29429;51.074;13.764;2023-02-01T02:09:40;5.70;99.90
43949;DHT22;29429;51.074;13.764;2023-02-01T02:12:25;5.70;99.90
43949;DHT22;29429;51.074;13.764;2023-02-01T02:14:52;5.70;99.90
43949;DHT22;29429;51.074;13.764;2023-02-01T02:20:45;5.70;99.90
43949;DHT22;29429;51.074;13.764;2023-02-01T02:29:46;5.70;99.90
43949;DHT22;29429;51.074;13.764;2023-02-01T02:41:51;5.70;99.90
43949;DHT22;29429;51.074;13.764;2023-02-01T02:44:47;5.80;99.90
43949;DHT22;29429;51.074;13.764;2023-02-01T02:50:38;5.50;99.90
43949;DHT22;29429;51.074;13.764;2023-02-01T02:53:47;5.50;99.90
43949;DHT22;29429;51.074;13.764;2023-02-01T02:56:38;5.40;99.90
43949;DHT22;29429;51.074;13.764;2023-02-01T02:59:26;5.40;99.90
43949;DHT22;29429;51.074;13.764;2023-02-01T03:02:15;5.50;99.90
43949;DHT22;29429;51.074;13.764;2023-02-01T03:05:02;5.40;99.90
43949;DHT22;29429;51.074;13.764;2023-02-01T03:13:08;5.40;99.90
43949;DHT22;29429;51.074;13.764;2023-02-01T03:15:40;5.40;99.90
43949;DHT22;29429;51.074;13.764;2023-02-01T03:18:20;5.40;99.90
43949;DHT22;29429;51.074;13.764;2023-02-01T03:20:55;5.50;99.90
43949;DHT22;29429;51.074;13.764;2023-02-01T03:23:28;5.40;99.90
43949;DHT22;29429;51.074;13.764;2023-02-01T03:26:01;5.30;99.90
43949;DHT22;29429;51.074;13.764;2023-02-01T03:28:33;5.50;99.90
43949;DHT22;29429;51.074;13.764;2023-02-01T03:31:02;5.30;99.90
43949;DHT22;29429;51.074;13.764;2023-02-01T03:33:30;5.30;99.90
43949;DHT22;29429;51.074;13.764;2023-02-01T03:36:05;5.40;99.90
43949;DHT22;29429;51.074;13.764;2023-02-01T03:47:50;5.50;99.90
43949;DHT22;29429;51.074;13.764;2023-02-01T03:50:24;5.60;99.90
43949;DHT22;29429;51.074;13.764;2023-02-01T03:53:06;5.70;99.90
43949;DHT22;29429;51.074;13.764;2023-02-01T03:55:36;5.70;99.90
43949;DHT22;29429;51.074;13.764;2023-02-01T03:58:11;5.70;99.90
43949;DHT22;29429;51.074;13.764;2023-02-01T04:00:40;5.70;99.90
43949;DHT22;29429;51.074;13.764;2023-02-01T04:03:11;5.70;99.90
43949;DHT22;29429;51.074;13.764;2023-02-01T04:05:37;5.70;99.90
43949;DHT22;29429;51.074;13.764;2023-02-01T04:08:07;5.70;99.90
43949;DHT22;29429;51.074;13.764;2023-02-01T04:10:33;5.70;99.90
43949;DHT22;29429;51.074;13.764;2023-02-01T04:13:00;5.70;99.90
43949;DHT22;29429;51.074;13.764;2023-02-01T04:15:27;5.70;99.90
43949;DHT22;29429;51.074;13.764;2023-02-01T04:17:54;5.60;99.90
43949;DHT22;29429;51.074;13.764;2023-02-01T04:20:22;5.70;99.90
43949;DHT22;29429;51.074;13.764;2023-02-01T04:22:49;5.70;99.90
43949;DHT22;29429;51.074;13.764;2023-02-01T04:25:16;5.70;99.90
43949;DHT22;29429;51.074;13.764;2023-02-01T04:27:45;5.70;99.90
43949;DHT22;29429;51.074;13.764;2023-02-01T04:30:13;5.70;99.90
43949;DHT22;29429;51.074;13.764;2023-02-01T04:32:41;5.70;99.90
43949;DHT22;29429;51.074;13.764;2023-02-01T04:35:08;5.80;99.90
43949;DHT22;29429;51.074;13.764;2023-02-01T04:37:35;5.70;99.90
43949;DHT22;29429;51.074;13.764;2023-02-01T04:40:02;5.70;99.90
43949;DHT22;29429;51.074;13.764;2023-02-01T04:42:30;5.60;99.90
43949;DHT22;29429;51.074;13.764;2023-02-01T04:44:57;5.60;99.90
43949;DHT22;29429;51.074;13.764;2023-02-01T04:47:24;5.60;99.90
43949;DHT22;29429;51.074;13.764;2023-02-01T04:49:51;5.70;99.90
43949;DHT22;29429;51.074;13.764;2023-02-01T04:52:18;5.60;99.90
43949;DHT22;29429;51.074;13.764;2023-02-01T04:54:44;5.60;99.90
43949;DHT22;29429;51.074;13.764;2023-02-01T04:57:11;5.70;99.90
43949;DHT22;29429;51.074;13.764;2023-02-01T04:59:40;5.60;99.90
43949;DHT22;29429;51.074;13.764;2023-02-01T05:02:07;5.60;99.90
43949;DHT22;29429;51.074;13.764;2023-02-01T05:04:34;5.70;99.90
43949;DHT22;29429;51.074;13.764;2023-02-01T05:07:01;5.50;99.90
43949;DHT22;29429;51.074;13.764;2023-02-01T05:09:28;5.50;99.90
43949;DHT22;29429;51.074;13.764;2023-02-01T05:11:55;5.50;99.90
43949;DHT22;29429;51.074;13.764;2023-02-01T05:14:40;5.50;99.90
43949;DHT22;29429;51.074;13.764;2023-02-01T05:17:07;5.50;99.90
43949;DHT22;29429;51.074;13.764;2023-02-01T05:19:35;5.60;99.90
43949;DHT22;29429;51.074;13.764;2023-02-01T05:22:01;5.90;99.90
43949;DHT22;29429;51.074;13.764;2023-02-01T05:24:28;5.90;99.90
43949;DHT22;29429;51.074;13.764;2023-02-01T05:26:55;6.10;99.90
43949;DHT22;29429;51.074;13.764;2023-02-01T05:29:22;6.00;99.90
43949;DHT22;29429;51.074;13.764;2023-02-01T05:31:49;5.90;99.90
43949;DHT22;29429;51.074;13.764;2023-02-01T05:34:16;5.80;99.90
43949;DHT22;29429;51.074;13.764;2023-02-01T05:36:43;5.80;99.90
43949;DHT22;29429;51.074;13.764;2023-02-01T05:39:10;5.70;99.90
43949;DHT22;29429;51.074;13.764;2023-02-01T05:41:37;5.70;99.90
43949;DHT22;29429;51.074;13.764;2023-02-01T05:44:05;5.70;99.90
43949;DHT22;29429;51.074;13.764;2023-02-01T05:46:35;5.70;99.90
43949;DHT22;29429;51.074;13.764;2023-02-01T05:49:03;5.60;99.90
43949;DHT22;29429;51.074;13.764;2023-02-01T05:51:31;5.90;99.90
43949;DHT22;29429;51.074;13.764;2023-02-01T05:53:59;5.70;99.90
43949;DHT22;29429;51.074;13.764;2023-02-01T05:56:27;5.60;99.90
43949;DHT22;29429;51.074;13.764;2023-02-01T05:58:54;5.70;99.90
43949;DHT22;29429;51.074;13.764;2023-02-01T06:01:21;5.80;99.90
43949;DHT22;29429;51.074;13.764;2023-02-01T06:03:48;5.80;99.90
43949;DHT22;29429;51.074;13.764;2023-02-01T06:06:17;5.80;99.90
43949;DHT22;29429;51.074;13.764;2023-02-01T06:08:45;5.80;99.90
43949;DHT22;29429;51.074;13.764;2023-02-01T06:11:12;5.80;99.90
43949;DHT22;29429;51.074;13.764;2023-02-01T06:13:57;5.80;99.90
43949;DHT22;29429;51.074;13.764;2023-02-01T06:16:25;5.80;99.90
43949;DHT22;29429;51.074;13.764;2023-02-01T06:18:52;5.80;99.90
43949;DHT22;29429;51.074;13.764;2023-02-01T06:21:20;5.90;99.90
43949;DHT22;29429;51.074;13.764;2023-02-01T06:23:51;5.70;99.90
43949;DHT22;29429;51.074;13.764;2023-02-01T06:26:20;5.80;99.90
43949;DHT22;29429;51.074;13.764;2023-02-01T06:28:47;5.80;99.90
43949;DHT22;29429;51.074;13.764;2023-02-01T06:31:15;5.70;99.90
43949;DHT22;29429;51.074;13.764;2023-02-01T06:33:42;5.80;99.90
43949;DHT22;29429;51.074;13.764;2023-02-01T06:36:10;5.90;99.90
43949;DHT22;29429;51.074;13.764;2023-02-01T06:38:39;5.80;99.90
43949;DHT22;29429;51.074;13.764;2023-02-01T06:41:16;5.80;99.90
43949;DHT22;29429;51.074;13.764;2023-02-01T06:43:43;5.80;99.90
43949;DHT22;29429;51.074;13.764;2023-02-01T06:46:12;5.80;99.90
43949;DHT22;29429;51.074;13.764;2023-02-01T06:48:40;5.80;99.90
43949;DHT22;29429;51.074;13.764;2023-02-01T06:51:22;5.80;99.90
43949;DHT22;29429;51.074;13.764;2023-02-01T06:53:51;5.80;99.90
43949;DHT22;29429;51.074;13.764;2023-02-01T06:56:19;5.90;99.90
43949;DHT22;29429;51.074;13.764;2023-02-01T06:58:47;5.80;99.90
43949;DHT22;29429;51.074;13.764;2023-02-01T07:01:15;5.80;99.90
43949;DHT22;29429;51.074;13.764;2023-02-01T07:03:46;5.90;99.90
43949;DHT22;29429;51.074;13.764;2023-02-01T07:06:14;5.80;99.90
43949;DHT22;29429;51.074;13.764;2023-02-01T07:08:41;6.00;99.90
43949;DHT22;29429;51.074;13.764;2023-02-01T07:11:12;6.00;99.90
43949;DHT22;29429;51.074;13.764;2023-02-01T07:13:42;5.80;99.90
43949;DHT22;29429;51.074;13.764;2023-02-01T07:16:12;5.80;99.90
43949;DHT22;29429;51.074;13.764;2023-02-01T07:18:40;5.90;99.90
43949;DHT22;29429;51.074;13.764;2023-02-01T07:21:07;5.90;99.90
43949;DHT22;29429;51.074;13.764;2023-02-01T07:23:35;5.90;99.90
43949;DHT22;29429;51.074;13.764;2023-02-01T07:26:04;5.90;99.90
43949;DHT22;29429;51.074;13.764;2023-02-01T07:28:34;5.80;99.90
43949;DHT22;29429;51.074;13.764;2023-02-01T07:31:11;5.80;99.90
43949;DHT22;29429;51.074;13.764;2023-02-01T07:33:45;5.80;99.90
43949;DHT22;29429;51.074;13.764;2023-02-01T07:36:15;5.90;99.90
43949;DHT22;29429;51.074;13.764;2023-02-01T07:38:43;5.60;99.90
43949;DHT22;29429;51.074;13.764;2023-02-01T07:41:16;5.60;99.90
43949;DHT22;29429;51.074;13.764;2023-02-01T07:43:44;5.50;99.90
43949;DHT22;29429;51.074;13.764;2023-02-01T07:46:14;5.50;99.90
43949;DHT22;29429;51.074;13.764;2023-02-01T07:48:42;5.70;99.90
43949;DHT22;29429;51.074;13.764;2023-02-01T07:51:14;5.50;99.90
43949;DHT22;29429;51.074;13.764;2023-02-01T07:53:47;5.50;99.90
43949;DHT22;29429;51.074;13.764;2023-02-01T07:56:20;5.40;99.90
43949;DHT22;29429;51.074;13.764;2023-02-01T07:58:59;5.50;99.90
43949;DHT22;29429;51.074;13.764;2023-02-01T08:01:28;5.50;99.90
43949;DHT22;29429;51.074;13.764;2023-02-01T08:03:58;5.70;99.90
43949;DHT22;29429;51.074;13.764;2023-02-01T08:06:31;5.50;99.90
43949;DHT22;29429;51.074;13.764;2023-02-01T08:09:00;5.60;99.90
43949;DHT22;29429;51.074;13.764;2023-02-01T08:11:28;5.60;99.90
43949;DHT22;29429;51.074;13.764;2023-02-01T08:13:55;5.70;99.90
43949;DHT22;29429;51.074;13.764;2023-02-01T08:16:23;5.60;99.90
43949;DHT22;29429;51.074;13.764;2023-02-01T08:18:51;5.70;99.90
43949;DHT22;29429;51.074;13.764;2023-02-01T08:21:48;5.80;99.90
43949;DHT22;29429;51.074;13.764;2023-02-01T08:24:36;5.80;99.90
43949;DHT22;29429;51.074;13.764;2023-02-01T08:27:28;5.80;99.90
43949;DHT22;29429;51.074;13.764;2023-02-01T08:31:16;5.70;99.90
43949;DHT22;29429;51.074;13.764;2023-02-01T08:34:34;5.70;99.90
43949;DHT22;29429;51.074;13.764;2023-02-01T08:37:41;5.70;99.90
43949;DHT22;29429;51.074;13.764;2023-02-01T08:40:27;5.60;99.90
43949;DHT22;29429;51.074;13.764;2023-02-01T08:43:01;5.60;99.90
43949;DHT22;29429;51.074;13.764;2023-02-01T08:45:29;5.80;99.90
43949;DHT22;29429;51.074;13.764;2023-02-01T08:47:57;5.70;99.90
43949;DHT22;29429;51.074;13.764;2023-02-01T08:50:25;5.70;99.90
43949;DHT22;29429;51.074;13.764;2023-02-01T08:53:03;5.60;99.90
43949;DHT22;29429;51.074;13.764;2023-02-01T08:55:45;5.30;99.90
43949;DHT22;29429;51.074;13.764;2023-02-01T08:58:16;5.80;99.90
43949;DHT22;29429;51.074;13.764;2023-02-01T09:00:44;6.00;99.90
43949;DHT22;29429;51.074;13.764;2023-02-01T09:03:12;6.20;99.90
43949;DHT22;29429;51.074;13.764;2023-02-01T09:05:39;6.30;99.90
43949;DHT22;29429;51.074;13.764;2023-02-01T09:08:15;6.40;99.90
43949;DHT22;29429;51.074;13.764;2023-02-01T09:10:43;6.50;99.90
43949;DHT22;29429;51.074;13.764;2023-02-01T09:13:13;6.60;99.90
43949;DHT22;29429;51.074;13.764;2023-02-01T09:15:41;7.20;99.90
43949;DHT22;29429;51.074;13.764;2023-02-01T09:18:08;6.70;99.90
43949;DHT22;29429;51.074;13.764;2023-02-01T09:20:37;6.60;99.90
43949;DHT22;29429;51.074;13.764;2023-02-01T09:23:04;6.80;99.90
43949;DHT22;29429;51.074;13.764;2023-02-01T09:25:36;6.70;99.90
43949;DHT22;29429;51.074;13.764;2023-02-01T09:28:13;6.70;99.90
43949;DHT22;29429;51.074;13.764;2023-02-01T09:30:41;6.70;99.90
43949;DHT22;29429;51.074;13.764;2023-02-01T09:33:08;6.70;99.90
43949;DHT22;29429;51.074;13.764;2023-02-01T09:35:35;6.60;99.90
43949;DHT22;29429;51.074;13.764;2023-02-01T09:38:02;6.80;99.90
43949;DHT22;29429;51.074;13.764;2023-02-01T09:40:29;6.70;99.90
43949;DHT22;29429;51.074;13.764;2023-02-01T09:43:07;6.80;99.90
43949;DHT22;29429;51.074;13.764;2023-02-01T09:48:29;6.70;99.90
43949;DHT22;29429;51.074;13.764;2023-02-01T09:51:05;6.70;99.90
43949;DHT22;29429;51.074;13.764;2023-02-01T09:53:41;6.50;99.90
43949;DHT22;29429;51.074;13.764;2023-02-01T09:56:18;6.40;99.90
43949;DHT22;29429;51.074;13.764;2023-02-01T10:01:20;6.00;99.90
43949;DHT22;29429;51.074;13.764;2023-02-01T10:03:49;5.90;99.90
43949;DHT22;29429;51.074;13.764;2023-02-01T10:16:00;5.20;99.90
43949;DHT22;29429;51.074;13.764;2023-02-01T10:19:14;5.10;99.90
43949;DHT22;29429;51.074;13.764;2023-02-01T10:22:04;5.00;99.90
43949;DHT22;29429;51.074;13.764;2023-02-01T10:24:53;4.90;99.90
43949;DHT22;29429;51.074;13.764;2023-02-01T10:27:37;4.90;99.90
43949;DHT22;29429;51.074;13.764;2023-02-01T10:30:24;4.80;99.90
43949;DHT22;29429;51.074;13.764;2023-02-01T10:35:45;5.00;99.90
43949;DHT22;29429;51.074;13.764;2023-02-01T10:38:28;4.90;99.90
43949;DHT22;29429;51.074;13.764;2023-02-01T10:41:02;4.90;99.90
43949;DHT22;29429;51.074;13.764;2023-02-01T10:43:37;4.90;99.90
43949;DHT22;29429;51.074;13.764;2023-02-01T10:46:07;4.90;99.90
43949;DHT22;29429;51.074;13.764;2023-02-01T10:48:35;4.90;99.90
43949;DHT22;29429;51.074;13.764;2023-02-01T10:51:10;5.00;99.90
43949;DHT22;29429;51.074;13.764;2023-02-01T10:53:52;5.00;99.90
43949;DHT22;29429;51.074;13.764;2023-02-01T10:56:26;5.00;99.90
43949;DHT22;29429;51.074;13.764;2023-02-01T10:59:03;5.10;99.90
43949;DHT22;29429;51.074;13.764;2023-02-01T11:01:47;5.10;99.90
43949;DHT22;29429;51.074;13.764;2023-02-01T11:04:20;5.30;99.90
43949;DHT22;29429;51.074;13.764;2023-02-01T11:07:20;5.40;99.90
43949;DHT22;29429;51.074;13.764;2023-02-01T11:09:54;5.60;99.90
43949;DHT22;29429;51.074;13.764;2023-02-01T11:15:20;5.80;99.90
43949;DHT22;29429;51.074;13.764;2023-02-01T11:17:51;5.90;99.90
43949;DHT22;29429;51.074;13.764;2023-02-01T11:20:38;5.90;99.90
43949;DHT22;29429;51.074;13.764;2023-02-01T11:23:24;6.00;99.90
43949;DHT22;29429;51.074;13.764;2023-02-01T11:26:23;6.00;99.90
43949;DHT22;29429;51.074;13.764;2023-02-01T11:28:59;6.10;99.90
43949;DHT22;29429;51.074;13.764;2023-02-01T11:31:33;6.10;99.90
43949;DHT22;29429;51.074;13.764;2023-02-01T11:34:14;6.10;99.90
43949;DHT22;29429;51.074;13.764;2023-02-01T11:36:50;6.10;99.90
43949;DHT22;29429;51.074;13.764;2023-02-01T11:39:31;6.20;99.90
43949;DHT22;29429;51.074;13.764;2023-02-01T11:42:14;6.30;99.90
43949;DHT22;29429;51.074;13.764;2023-02-01T11:44:46;6.40;99.90
43949;DHT22;29429;51.074;13.764;2023-02-01T11:47:32;6.30;99.90
43949;DHT22;29429;51.074;13.764;2023-02-01T11:50:15;6.20;99.90
43949;DHT22;29429;51.074;13.764;2023-02-01T11:56:33;6.50;99.90
43949;DHT22;29429;51.074;13.764;2023-02-01T11:59:23;6.50;99.90
43949;DHT22;29429;51.074;13.764;2023-02-01T12:09:38;6.20;99.90
43949;DHT22;29429;51.074;13.764;2023-02-01T12:27:24;6.50;99.90
43949;DHT22;29429;51.074;13.764;2023-02-01T12:33:35;6.50;99.90
43949;DHT22;29429;51.074;13.764;2023-02-01T12:36:32;6.50;99.90
43949;DHT22;29429;51.074;13.764;2023-02-01T12:42:26;6.50;99.90
43949;DHT22;29429;51.074;13.764;2023-02-01T12:45:15;6.60;99.90
43949;DHT22;29429;51.074;13.764;2023-02-01T12:47:53;6.60;99.90
43949;DHT22;29429;51.074;13.764;2023-02-01T12:50:47;6.70;99.90
43949;DHT22;29429;51.074;13.764;2023-02-01T12:53:52;6.60;99.90
43949;DHT22;29429;51.074;13.764;2023-02-01T12:56:44;6.60;99.90
43949;DHT22;29429;51.074;13.764;2023-02-01T13:02:41;6.70;99.90
43949;DHT22;29429;51.074;13.764;2023-02-01T13:05:22;6.70;99.90
43949;DHT22;29429;51.074;13.764;2023-02-01T13:08:06;6.80;99.90
43949;DHT22;29429;51.074;13.764;2023-02-01T13:10:54;6.80;99.90
43949;DHT22;29429;51.074;13.764;2023-02-01T13:14:02;6.90;99.90
43949;DHT22;29429;51.074;13.764;2023-02-01T13:19:59;7.00;99.90
43949;DHT22;29429;51.074;13.764;2023-02-01T13:22:40;7.10;99.90
43949;DHT22;29429;51.074;13.764;2023-02-01T13:25:26;7.20;99.90
43949;DHT22;29429;51.074;13.764;2023-02-01T13:28:04;7.20;99.90
43949;DHT22;29429;51.074;13.764;2023-02-01T13:37:17;8.00;99.90
43949;DHT22;29429;51.074;13.764;2023-02-01T13:42:59;7.20;99.90
43949;DHT22;29429;51.074;13.764;2023-02-01T13:45:32;7.30;99.90
43949;DHT22;29429;51.074;13.764;2023-02-01T13:48:06;7.30;99.90
43949;DHT22;29429;51.074;13.764;2023-02-01T13:50:51;7.20;99.90
43949;DHT22;29429;51.074;13.764;2023-02-01T13:53:44;7.20;99.90
43949;DHT22;29429;51.074;13.764;2023-02-01T13:56:19;7.30;99.90
43949;DHT22;29429;51.074;13.764;2023-02-01T13:58:48;7.30;99.90
43949;DHT22;29429;51.074;13.764;2023-02-01T14:15:37;7.20;99.90
43949;DHT22;29429;51.074;13.764;2023-02-01T14:34:48;7.20;99.90
43949;DHT22;29429;51.074;13.764;2023-02-01T14:37:44;7.20;99.90
43949;DHT22;29429;51.074;13.764;2023-02-01T14:40:29;7.10;99.90
43949;DHT22;29429;51.074;13.764;2023-02-01T14:42:57;7.10;99.90
43949;DHT22;29429;51.074;13.764;2023-02-01T14:55:44;7.00;99.90
43949;DHT22;29429;51.074;13.764;2023-02-01T15:01:23;7.00;99.90
43949;DHT22;29429;51.074;13.764;2023-02-01T15:04:17;6.90;99.90
43949;DHT22;29429;51.074;13.764;2023-02-01T15:09:34;6.90;99.90
43949;DHT22;29429;51.074;13.764;2023-02-01T15:15:03;6.90;99.90
43949;DHT22;29429;51.074;13.764;2023-02-01T15:17:37;6.90;99.90
43949;DHT22;29429;51.074;13.764;2023-02-01T15:20:50;6.90;99.90
43949;DHT22;29429;51.074;13.764;2023-02-01T15:23:27;6.90;99.90
43949;DHT22;29429;51.074;13.764;2023-02-01T15:25:55;6.90;99.90
43949;DHT22;29429;51.074;13.764;2023-02-01T15:28:22;6.80;99.90
43949;DHT22;29429;51.074;13.764;2023-02-01T15:31:02;6.80;99.90
43949;DHT22;29429;51.074;13.764;2023-02-01T15:33:31;6.80;99.90
43949;DHT22;29429;51.074;13.764;2023-02-01T15:36:11;6.70;99.90
43949;DHT22;29429;51.074;13.764;2023-02-01T15:38:47;6.60;99.90
43949;DHT22;29429;51.074;13.764;2023-02-01T15:41:29;6.60;99.90
43949;DHT22;29429;51.074;13.764;2023-02-01T15:46:36;6.50;99.90
43949;DHT22;29429;51.074;13.764;2023-02-01T15:49:36;6.60;99.90
43949;DHT22;29429;51.074;13.764;2023-02-01T15:52:22;6.50;99.90
43949;DHT22;29429;51.074;13.764;2023-02-01T15:54:54;6.50;99.90
43949;DHT22;29429;51.074;13.764;2023-02-01T15:57:29;6.50;99.90
43949;DHT22;29429;51.074;13.764;2023-02-01T16:00:03;6.60;99.90
43949;DHT22;29429;51.074;13.764;2023-02-01T16:02:43;6.60;99.90
43949;DHT22;29429;51.074;13.764;2023-02-01T16:08:20;6.60;99.90
43949;DHT22;29429;51.074;13.764;2023-02-01T16:10:53;6.50;99.90
43949;DHT22;29429;51.074;13.764;2023-02-01T16:13:25;6.70;99.90
43949;DHT22;29429;51.074;13.764;2023-02-01T16:15:52;6.80;99.90
43949;DHT22;29429;51.074;13.764;2023-02-01T16:18:20;6.70;99.90
43949;DHT22;29429;51.074;13.764;2023-02-01T16:20:47;6.60;99.90
43949;DHT22;29429;51.074;13.764;2023-02-01T16:23:15;6.60;99.90
43949;DHT22;29429;51.074;13.764;2023-02-01T16:25:42;6.50;99.90
43949;DHT22;29429;51.074;13.764;2023-02-01T16:28:09;6.40;99.90
43949;DHT22;29429;51.074;13.764;2023-02-01T16:30:36;6.50;99.90
43949;DHT22;29429;51.074;13.764;2023-02-01T16:33:05;6.50;99.90
43949;DHT22;29429;51.074;13.764;2023-02-01T16:35:38;6.40;99.90
43949;DHT22;29429;51.074;13.764;2023-02-01T16:38:10;6.50;99.90
43949;DHT22;29429;51.074;13.764;2023-02-01T16:40:41;6.20;99.90
43949;DHT22;29429;51.074;13.764;2023-02-01T16:43:15;6.20;99.90
43949;DHT22;29429;51.074;13.764;2023-02-01T16:45:47;6.10;99.90
43949;DHT22;29429;51.074;13.764;2023-02-01T16:48:19;6.10;99.90
43949;DHT22;29429;51.074;13.764;2023-02-01T16:51:03;6.00;99.90
43949;DHT22;29429;51.074;13.764;2023-02-01T16:53:35;5.90;99.90
43949;DHT22;29429;51.074;13.764;2023-02-01T16:56:24;5.80;99.90
43949;DHT22;29429;51.074;13.764;2023-02-01T16:58:56;5.80;99.90
43949;DHT22;29429;51.074;13.764;2023-02-01T17:01:24;5.60;99.90
43949;DHT22;29429;51.074;13.764;2023-02-01T17:03:52;5.40;99.90
43949;DHT22;29429;51.074;13.764;2023-02-01T17:06:22;5.10;99.90
43949;DHT22;29429;51.074;13.764;2023-02-01T17:08:53;4.90;99.90
43949;DHT22;29429;51.074;13.764;2023-02-01T17:11:22;4.20;99.90
43949;DHT22;29429;51.074;13.764;2023-02-01T17:13:49;3.50;99.90
43949;DHT22;29429;51.074;13.764;2023-02-01T17:16:24;3.20;99.90
43949;DHT22;29429;51.074;13.764;2023-02-01T17:18:58;3.10;99.90
43949;DHT22;29429;51.074;13.764;2023-02-01T17:21:40;3.10;99.90
43949;DHT22;29429;51.074;13.764;2023-02-01T17:24:13;3.20;99.90
43949;DHT22;29429;51.074;13.764;2023-02-01T17:26:42;3.40;99.90
43949;DHT22;29429;51.074;13.764;2023-02-01T17:29:10;3.20;99.90
43949;DHT22;29429;51.074;13.764;2023-02-01T17:31:41;3.20;99.90
43949;DHT22;29429;51.074;13.764;2023-02-01T17:34:11;3.20;99.90
43949;DHT22;29429;51.074;13.764;2023-02-01T17:36:42;3.20;99.90
43949;DHT22;29429;51.074;13.764;2023-02-01T17:39:10;3.10;99.90
43949;DHT22;29429;51.074;13.764;2023-02-01T17:41:37;3.10;99.90
43949;DHT22;29429;51.074;13.764;2023-02-01T17:44:04;3.10;99.90
43949;DHT22;29429;51.074;13.764;2023-02-01T17:46:31;3.00;99.90
43949;DHT22;29429;51.074;13.764;2023-02-01T17:48:58;2.90;99.90
43949;DHT22;29429;51.074;13.764;2023-02-01T17:51:27;2.90;99.90
43949;DHT22;29429;51.074;13.764;2023-02-01T17:53:56;2.90;99.90
43949;DHT22;29429;51.074;13.764;2023-02-01T17:56:24;2.90;99.90
43949;DHT22;29429;51.074;13.764;2023-02-01T17:58:51;2.90;99.90
43949;DHT22;29429;51.074;13.764;2023-02-01T18:01:24;2.90;99.90
43949;DHT22;29429;51.074;13.764;2023-02-01T18:04:15;2.90;99.90
43949;DHT22;29429;51.074;13.764;2023-02-01T18:06:45;2.90;99.90
43949;DHT22;29429;51.074;13.764;2023-02-01T18:09:12;2.80;99.90
43949;DHT22;29429;51.074;13.764;2023-02-01T18:11:38;2.90;99.90
43949;DHT22;29429;51.074;13.764;2023-02-01T18:14:10;3.00;99.90
43949;DHT22;29429;51.074;13.764;2023-02-01T18:16:38;3.00;99.90
43949;DHT22;29429;51.074;13.764;2023-02-01T18:19:05;3.10;99.90
43949;DHT22;29429;51.074;13.764;2023-02-01T18:21:43;3.10;99.90
43949;DHT22;29429;51.074;13.764;2023-02-01T18:24:14;3.10;99.90
43949;DHT22;29429;51.074;13.764;2023-02-01T18:26:42;3.20;99.90
43949;DHT22;29429;51.074;13.764;2023-02-01T18:29:09;3.20;99.90
43949;DHT22;29429;51.074;13.764;2023-02-01T18:31:45;3.20;99.90
43949;DHT22;29429;51.074;13.764;2023-02-01T18:34:15;3.30;99.90
43949;DHT22;29429;51.074;13.764;2023-02-01T18:36:49;3.30;99.90
43949;DHT22;29429;51.074;13.764;2023-02-01T18:39:17;3.30;99.90
43949;DHT22;29429;51.074;13.764;2023-02-01T18:41:45;3.40;99.90
43949;DHT22;29429;51.074;13.764;2023-02-01T18:44:15;3.40;99.90
43949;DHT22;29429;51.074;13.764;2023-02-01T18:46:43;3.40;99.90
43949;DHT22;29429;51.074;13.764;2023-02-01T18:49:10;3.30;99.90
43949;DHT22;29429;51.074;13.764;2023-02-01T18:52:10;3.40;99.90
43949;DHT22;29429;51.074;13.764;2023-02-01T18:54:39;3.40;99.90